Niederwald, Texas
Current Conditions -  °F | °C
As of 1:50 PM on Sunday 23 Nov 2014 (Local Time) from KHYI Reporting Station
Clear Clear  
Wind Chill: 81°   Ceiling: Unl
Heat Index: 81°   Visibility: 10mi
Dew Point: 45°   Wind: 20mph
Humidity: 28%   Direction: 230°SW
Pressure: 29.56"   Gusts: 26mph
Location:  29.9978°N, 97.835°W
Report Text: KHYI 231950Z 23017G23KT 10SM SKC 27/07 A2956
Loading
Personal Weather Stations






























Interactive Weather Map New forecast layout! Learn more

10-Day Weather Forecast

Advertisements
Track Severe Weather on mobile